Huntsville, Alabama
Current Conditions -  °F | °C
As of 9:53 PM on Wednesday 26 Nov 2014 (Local Time) from KHSV Reporting Station
Scattered Clouds Scattered Clouds  
Wind Chill: 41°   Ceiling: Unl
Heat Index: 46°   Visibility: 10mi
Dew Point: 33°   Wind: 10mph
Humidity: 61%   Direction: 290°WNW
Pressure: 30.11"   Gusts: NA
Location:  34.73°N, 86.58°W
Report Text: KHSV 270353Z 29009KT 10SM SCT070 08/01 A3011 RMK AO2 SLP198 T00780006
Loading
Personal Weather Stations






























Interactive Weather Map New forecast layout! Learn more

10-Day Weather Forecast

Advertisements
Track Severe Weather on mobile